Time;durP1;ratioP1;P1;durP2;ratioP2;P2;SDS_P1;SDS_P2;PMS_P1;PMS_P2;Temp;Humidity;BMP_temperature;BMP_pressure;BME280_temperature;BME280_humidity;BME280_pressure;Samples;Min_cycle;Max_cycle;Signal;HPM_P1;HPM_P2
2022/03/05 00:00:20;;;;;;;;;40.75;36.75;;;;;;;;5077028;27;45534;-66
2022/03/05 00:02:45;;;;;;;;;53.75;44.00;;;;;;;;5091097;27;45483;-67
2022/03/05 00:05:12;;;;;;;;;53.00;44.75;;;;;;;;5080017;27;45628;-65
2022/03/05 00:07:38;;;;;;;;;48.25;41.00;;;;;;;;5085120;27;47031;-67
2022/03/05 00:10:03;;;;;;;;;52.50;44.75;;;;;;;;5082333;27;45526;-67
2022/03/05 00:12:28;;;;;;;;;52.75;41.25;;;;;;;;5080976;27;45489;-68
2022/03/05 00:14:53;;;;;;;;;52.50;43.50;;;;;;;;5087034;27;45544;-65
2022/03/05 00:17:19;;;;;;;;;52.75;41.75;;;;;;;;5080093;27;45415;-67
2022/03/05 00:19:44;;;;;;;;;53.50;44.00;;;;;;;;5078556;27;45637;-66
2022/03/05 00:22:09;;;;;;;;;56.25;45.00;;;;;;;;5074992;27;45840;-67
2022/03/05 00:24:35;;;;;;;;;52.75;43.00;;;;;;;;5068373;27;45534;-67
2022/03/05 00:27:00;;;;;;;;;51.50;41.25;;;;;;;;5067732;27;47183;-67
2022/03/05 00:29:25;;;;;;;;;51.75;41.00;;;;;;;;5072621;27;45896;-66
2022/03/05 00:31:51;;;;;;;;;55.50;42.75;;;;;;;;5064746;27;47359;-66
2022/03/05 00:34:16;;;;;;;;;56.75;43.75;;;;;;;;5065144;27;45663;-67
2022/03/05 00:36:41;;;;;;;;;52.25;43.00;;;;;;;;5081572;27;46210;-67
2022/03/05 00:39:07;;;;;;;;;51.75;42.00;;;;;;;;5070802;27;45555;-66
2022/03/05 00:41:32;;;;;;;;;55.25;44.50;;;;;;;;5082151;27;45889;-65
2022/03/05 00:43:57;;;;;;;;;52.25;43.00;;;;;;;;5083960;27;46067;-67
2022/03/05 00:46:23;;;;;;;;;55.75;42.00;;;;;;;;5075028;27;48477;-67
2022/03/05 00:48:48;;;;;;;;;53.00;43.00;;;;;;;;5081016;27;45477;-68
2022/03/05 00:51:13;;;;;;;;;51.00;43.50;;;;;;;;5083514;27;45713;-69
2022/03/05 00:53:38;;;;;;;;;52.00;43.50;;;;;;;;5080115;27;45545;-69
2022/03/05 00:56:04;;;;;;;;;53.50;44.25;;;;;;;;5084848;27;49716;-69
2022/03/05 00:58:29;;;;;;;;;51.50;43.25;;;;;;;;5074659;27;45481;-69
2022/03/05 01:00:54;;;;;;;;;57.00;43.75;;;;;;;;5091593;27;45468;-67
2022/03/05 01:03:20;;;;;;;;;53.25;42.75;;;;;;;;5088588;27;45511;-67
2022/03/05 01:05:45;;;;;;;;;53.50;44.50;;;;;;;;5075783;27;47510;-67
2022/03/05 01:08:12;;;;;;;;;57.00;45.25;;;;;;;;5085110;27;46234;-67
2022/03/05 01:10:37;;;;;;;;;56.50;43.50;;;;;;;;5074028;27;45646;-67
2022/03/05 01:13:03;;;;;;;;;56.25;44.75;;;;;;;;5082208;27;45546;-68
2022/03/05 01:15:28;;;;;;;;;56.75;45.50;;;;;;;;5083781;27;48412;-67
2022/03/05 01:17:54;;;;;;;;;55.25;43.25;;;;;;;;5086335;27;45758;-66
2022/03/05 01:20:19;;;;;;;;;52.75;43.25;;;;;;;;5089584;27;45539;-67
2022/03/05 01:22:44;;;;;;;;;54.00;44.25;;;;;;;;5075888;27;45569;-66
2022/03/05 01:25:09;;;;;;;;;51.25;43.00;;;;;;;;5083746;27;47713;-65
2022/03/05 01:27:35;;;;;;;;;55.75;44.50;;;;;;;;5085056;27;45486;-66
2022/03/05 01:30:00;;;;;;;;;59.25;45.25;;;;;;;;5068554;27;45449;-66
2022/03/05 01:32:25;;;;;;;;;56.25;45.25;;;;;;;;5092160;27;45336;-67
2022/03/05 01:34:50;;;;;;;;;54.25;43.75;;;;;;;;5077248;27;45800;-66
2022/03/05 01:37:15;;;;;;;;;57.75;47.00;;;;;;;;5085430;27;45356;-66
2022/03/05 01:39:44;;;;;;;;;54.25;43.50;;;;;;;;5084575;27;45512;-67
2022/03/05 01:42:09;;;;;;;;;52.25;42.00;;;;;;;;5076617;27;45565;-67
2022/03/05 01:44:34;;;;;;;;;55.50;44.00;;;;;;;;5091595;27;47227;-67
2022/03/05 01:47:04;;;;;;;;;54.50;45.50;;;;;;;;5077582;27;45477;-67
2022/03/05 01:49:29;;;;;;;;;54.00;42.50;;;;;;;;5085281;27;45874;-65
2022/03/05 01:51:55;;;;;;;;;51.75;43.50;;;;;;;;5082175;27;45927;-67
2022/03/05 01:54:20;;;;;;;;;56.50;45.25;;;;;;;;5078573;27;47488;-66
2022/03/05 01:56:46;;;;;;;;;52.50;43.75;;;;;;;;5089653;27;46509;-66
2022/03/05 01:59:11;;;;;;;;;56.75;45.00;;;;;;;;5080573;27;45472;-68
2022/03/05 02:01:37;;;;;;;;;53.00;43.75;;;;;;;;5074333;27;45492;-67
2022/03/05 02:04:02;;;;;;;;;58.00;46.25;;;;;;;;5069860;27;47401;-67
2022/03/05 02:06:27;;;;;;;;;58.50;45.00;;;;;;;;5061886;27;45523;-67
2022/03/05 02:08:54;;;;;;;;;52.00;42.50;;;;;;;;5086375;27;45412;-67
2022/03/05 02:11:21;;;;;;;;;56.00;43.00;;;;;;;;5071791;27;45556;-66
2022/03/05 02:13:46;;;;;;;;;51.50;43.25;;;;;;;;5073991;27;45601;-67
2022/03/05 02:16:11;;;;;;;;;54.00;44.50;;;;;;;;5068683;28;46297;-67
2022/03/05 02:18:37;;;;;;;;;57.75;45.25;;;;;;;;5063886;28;45411;-66
2022/03/05 02:21:02;;;;;;;;;54.75;45.00;;;;;;;;5062427;28;45603;-66
2022/03/05 02:23:27;;;;;;;;;56.25;45.75;;;;;;;;5073268;28;45610;-66
2022/03/05 02:25:57;;;;;;;;;52.00;42.50;;;;;;;;5064339;28;45620;-68
2022/03/05 02:28:23;;;;;;;;;56.50;44.50;;;;;;;;5065488;28;45438;-69
2022/03/05 02:30:49;;;;;;;;;50.75;40.75;;;;;;;;5069884;27;45494;-68
2022/03/05 02:33:14;;;;;;;;;55.50;45.25;;;;;;;;5069892;28;47881;-67
2022/03/05 02:35:40;;;;;;;;;49.75;41.00;;;;;;;;5071174;28;45914;-68
2022/03/05 02:38:06;;;;;;;;;49.50;39.75;;;;;;;;5072415;27;45347;-68
2022/03/05 02:40:31;;;;;;;;;47.00;40.50;;;;;;;;5065758;27;45521;-68
2022/03/05 02:42:56;;;;;;;;;50.25;42.00;;;;;;;;5066248;28;47993;-68
2022/03/05 02:45:21;;;;;;;;;46.25;41.00;;;;;;;;5066556;28;45431;-68
2022/03/05 02:47:47;;;;;;;;;50.75;41.00;;;;;;;;5075183;27;45407;-69
2022/03/05 02:50:12;;;;;;;;;54.25;45.00;;;;;;;;5076761;28;45775;-67
2022/03/05 02:52:40;;;;;;;;;52.25;41.25;;;;;;;;5073062;28;47446;-67
2022/03/05 02:55:06;;;;;;;;;52.25;41.75;;;;;;;;5074430;28;46096;-69
2022/03/05 02:57:32;;;;;;;;;51.50;43.00;;;;;;;;5072802;27;45580;-68
2022/03/05 02:59:57;;;;;;;;;54.25;44.00;;;;;;;;5072072;28;45893;-68
2022/03/05 03:02:22;;;;;;;;;50.25;41.00;;;;;;;;5072764;27;47854;-68
2022/03/05 03:04:48;;;;;;;;;52.25;42.00;;;;;;;;5070806;28;45456;-68
2022/03/05 03:07:13;;;;;;;;;44.25;37.75;;;;;;;;5070313;27;45457;-68
2022/03/05 03:09:38;;;;;;;;;53.00;41.75;;;;;;;;5074009;28;45366;-67
2022/03/05 03:12:04;;;;;;;;;49.00;38.75;;;;;;;;5058703;27;46646;-67
2022/03/05 03:14:29;;;;;;;;;58.50;47.50;;;;;;;;5075220;27;45557;-67
2022/03/05 03:16:54;;;;;;;;;54.50;42.25;;;;;;;;5072662;28;45589;-68
2022/03/05 03:19:19;;;;;;;;;53.25;43.00;;;;;;;;5072678;27;45822;-69
2022/03/05 03:21:45;;;;;;;;;54.50;44.50;;;;;;;;5071366;28;47546;-68
2022/03/05 03:24:10;;;;;;;;;48.50;41.00;;;;;;;;5072449;28;45641;-68
2022/03/05 03:26:35;;;;;;;;;49.25;41.00;;;;;;;;5074167;27;45493;-68
2022/03/05 03:29:01;;;;;;;;;54.00;43.75;;;;;;;;5073221;28;45469;-67
2022/03/05 03:31:26;;;;;;;;;56.50;43.50;;;;;;;;5072599;27;48322;-67
2022/03/05 03:33:52;;;;;;;;;52.50;42.00;;;;;;;;5072812;28;46129;-68
2022/03/05 03:36:17;;;;;;;;;53.25;44.00;;;;;;;;5072315;28;45452;-68
2022/03/05 03:38:42;;;;;;;;;55.50;45.25;;;;;;;;5075046;27;45479;-67
2022/03/05 03:41:08;;;;;;;;;56.75;46.00;;;;;;;;5075192;28;46483;-68
2022/03/05 03:43:34;;;;;;;;;50.75;41.00;;;;;;;;5073608;28;45401;-67
2022/03/05 03:45:59;;;;;;;;;54.75;43.75;;;;;;;;5072591;28;45472;-69
2022/03/05 03:48:24;;;;;;;;;51.50;42.00;;;;;;;;5072348;28;45404;-68
2022/03/05 03:50:50;;;;;;;;;52.00;40.75;;;;;;;;5073730;28;46486;-67
2022/03/05 03:53:16;;;;;;;;;54.25;42.75;;;;;;;;5073167;28;45542;-67
2022/03/05 03:55:41;;;;;;;;;50.50;42.75;;;;;;;;5073528;28;45370;-67
2022/03/05 03:58:06;;;;;;;;;51.75;38.75;;;;;;;;5072338;28;45550;-67
2022/03/05 04:00:31;;;;;;;;;51.25;41.00;;;;;;;;5071746;28;48529;-68
2022/03/05 04:02:57;;;;;;;;;47.00;39.75;;;;;;;;5073262;27;45398;-68
2022/03/05 04:05:22;;;;;;;;;51.25;42.75;;;;;;;;5073636;28;45560;-68
2022/03/05 04:10:31;;;;;;;;;40.50;38.25;;;;;;;;5073334;28;45422;-67
2022/03/05 04:12:56;;;;;;;;;49.25;39.00;;;;;;;;5057711;28;46157;-68
2022/03/05 04:15:22;;;;;;;;;47.75;38.50;;;;;;;;5071607;28;45535;-66
2022/03/05 04:17:47;;;;;;;;;50.25;40.50;;;;;;;;5072431;27;45460;-68
2022/03/05 04:20:13;;;;;;;;;48.75;38.50;;;;;;;;5074887;27;46182;-67
2022/03/05 04:22:38;;;;;;;;;45.75;38.75;;;;;;;;5069584;28;45947;-65
2022/03/05 04:25:04;;;;;;;;;41.75;35.25;;;;;;;;5071273;28;45475;-70
2022/03/05 04:27:29;;;;;;;;;37.00;35.25;;;;;;;;5069421;28;45464;-68
2022/03/05 04:29:54;;;;;;;;;42.75;35.25;;;;;;;;5072817;28;46465;-69
2022/03/05 04:32:19;;;;;;;;;37.25;33.00;;;;;;;;5075064;28;45830;-70
2022/03/05 04:34:45;;;;;;;;;40.00;36.25;;;;;;;;5071130;28;45425;-69
2022/03/05 04:37:10;;;;;;;;;44.50;36.25;;;;;;;;5074037;27;45419;-68
2022/03/05 04:39:36;;;;;;;;;45.75;40.00;;;;;;;;5082826;27;45892;-68
2022/03/05 04:42:01;;;;;;;;;35.50;33.75;;;;;;;;5062014;28;45911;-69
2022/03/05 04:44:26;;;;;;;;;33.50;28.50;;;;;;;;5074180;27;45470;-68
2022/03/05 04:46:52;;;;;;;;;41.50;34.25;;;;;;;;5073870;28;45380;-68
2022/03/05 04:49:17;;;;;;;;;33.75;31.00;;;;;;;;5072608;27;45758;-68
2022/03/05 04:51:42;;;;;;;;;40.00;34.75;;;;;;;;5072765;27;45508;-69
2022/03/05 04:54:07;;;;;;;;;36.00;34.75;;;;;;;;5071537;28;45855;-69
2022/03/05 04:56:33;;;;;;;;;31.50;29.50;;;;;;;;5073925;27;45349;-70
2022/03/05 04:58:58;;;;;;;;;39.00;35.25;;;;;;;;5072543;27;45434;-69
2022/03/05 05:01:23;;;;;;;;;31.75;30.00;;;;;;;;5071405;28;46706;-70
2022/03/05 05:03:48;;;;;;;;;35.75;31.25;;;;;;;;5071568;27;45403;-66
2022/03/05 05:06:14;;;;;;;;;35.75;31.00;;;;;;;;5069713;28;45478;-69
2022/03/05 05:08:39;;;;;;;;;45.25;33.25;;;;;;;;5053313;28;48783;-68
2022/03/05 05:11:04;;;;;;;;;37.75;33.50;;;;;;;;5073147;27;46190;-69
2022/03/05 05:13:30;;;;;;;;;37.50;33.50;;;;;;;;5072719;27;45578;-68
2022/03/05 05:15:56;;;;;;;;;33.75;32.75;;;;;;;;5072357;27;45684;-69
2022/03/05 05:18:21;;;;;;;;;39.00;32.50;;;;;;;;5072279;27;45600;-69
2022/03/05 05:20:46;;;;;;;;;37.25;34.25;;;;;;;;5072687;27;45351;-69
2022/03/05 05:23:12;;;;;;;;;34.50;31.00;;;;;;;;5074224;28;45409;-69
2022/03/05 05:25:37;;;;;;;;;37.00;34.75;;;;;;;;5072176;27;45330;-69
2022/03/05 05:28:02;;;;;;;;;38.25;34.25;;;;;;;;5071912;27;45338;-69
2022/03/05 05:30:28;;;;;;;;;34.00;31.50;;;;;;;;5072190;27;46000;-68
2022/03/05 05:32:53;;;;;;;;;36.00;32.00;;;;;;;;5071108;28;45878;-69
2022/03/05 05:35:18;;;;;;;;;33.00;31.50;;;;;;;;5074417;27;45328;-68
2022/03/05 05:37:44;;;;;;;;;38.25;35.00;;;;;;;;5071830;27;45590;-68
2022/03/05 05:40:09;;;;;;;;;37.00;34.00;;;;;;;;5072102;27;45527;-69
2022/03/05 05:42:34;;;;;;;;;38.50;35.25;;;;;;;;5070617;28;45404;-68
2022/03/05 05:45:00;;;;;;;;;38.50;36.00;;;;;;;;5071588;27;45490;-69
2022/03/05 05:47:25;;;;;;;;;39.75;35.25;;;;;;;;5051601;28;47543;-69
2022/03/05 05:49:50;;;;;;;;;36.50;34.00;;;;;;;;5070760;28;45469;-67
2022/03/05 05:52:16;;;;;;;;;36.50;34.50;;;;;;;;5070832;28;45908;-69
2022/03/05 05:54:41;;;;;;;;;35.25;34.25;;;;;;;;5070386;28;45515;-68
2022/03/05 05:57:06;;;;;;;;;47.75;38.75;;;;;;;;5071947;27;46451;-68
2022/03/05 05:59:31;;;;;;;;;34.75;29.75;;;;;;;;5072744;28;45605;-69
2022/03/05 06:01:58;;;;;;;;;39.00;33.75;;;;;;;;5071556;28;45404;-69
2022/03/05 06:04:23;;;;;;;;;41.75;35.75;;;;;;;;5070380;28;45481;-69
2022/03/05 06:06:49;;;;;;;;;42.50;36.00;;;;;;;;5071591;28;45646;-67
2022/03/05 06:09:14;;;;;;;;;40.50;36.50;;;;;;;;5070308;28;46146;-69
2022/03/05 06:11:39;;;;;;;;;36.25;33.75;;;;;;;;5072953;27;45230;-68
2022/03/05 06:14:06;;;;;;;;;36.75;34.25;;;;;;;;5069907;28;45408;-68
2022/03/05 06:16:31;;;;;;;;;45.00;36.50;;;;;;;;5069293;28;47844;-68
2022/03/05 06:18:56;;;;;;;;;44.00;37.50;;;;;;;;5069946;28;45992;-68
2022/03/05 06:21:22;;;;;;;;;47.75;39.00;;;;;;;;5070308;28;45498;-69
2022/03/05 06:23:47;;;;;;;;;45.50;37.75;;;;;;;;5071203;27;45805;-68
2022/03/05 06:26:12;;;;;;;;;49.50;38.75;;;;;;;;5069937;28;47303;-67
2022/03/05 06:28:38;;;;;;;;;45.25;38.50;;;;;;;;5069975;28;45449;-69
2022/03/05 06:31:04;;;;;;;;;42.25;38.25;;;;;;;;5069900;28;45516;-68
2022/03/05 06:33:29;;;;;;;;;42.25;36.00;;;;;;;;5071572;27;45805;-68
2022/03/05 06:35:55;;;;;;;;;39.00;34.75;;;;;;;;5069396;28;47735;-69
2022/03/05 06:38:21;;;;;;;;;43.50;36.50;;;;;;;;5071810;28;45343;-68
2022/03/05 06:40:46;;;;;;;;;39.25;36.00;;;;;;;;5069600;28;45578;-68
2022/03/05 06:43:12;;;;;;;;;43.25;37.25;;;;;;;;5070868;27;45274;-68
2022/03/05 06:45:37;;;;;;;;;41.50;35.75;;;;;;;;5069437;28;48264;-68
2022/03/05 06:48:03;;;;;;;;;49.75;40.25;;;;;;;;5070772;27;45456;-68
2022/03/05 06:50:28;;;;;;;;;41.25;37.00;;;;;;;;5071489;28;45547;-68
2022/03/05 06:52:54;;;;;;;;;42.50;37.50;;;;;;;;5068778;28;45404;-67
2022/03/05 06:55:19;;;;;;;;;39.25;35.50;;;;;;;;5070239;28;46832;-69
2022/03/05 06:57:44;;;;;;;;;41.00;36.00;;;;;;;;5070470;27;45361;-68
2022/03/05 07:00:11;;;;;;;;;39.75;36.50;;;;;;;;5070796;27;45504;-66
2022/03/05 07:02:36;;;;;;;;;39.00;33.50;;;;;;;;5071012;28;45385;-68
2022/03/05 07:05:01;;;;;;;;;43.25;37.50;;;;;;;;5067757;28;47901;-68
2022/03/05 07:07:27;;;;;;;;;40.25;34.00;;;;;;;;5068825;28;45818;-70
2022/03/05 07:09:52;;;;;;;;;37.25;34.50;;;;;;;;5069347;28;45365;-69
2022/03/05 07:12:17;;;;;;;;;42.50;36.50;;;;;;;;5070690;27;45387;-69
2022/03/05 07:14:48;;;;;;;;;37.25;35.75;;;;;;;;5071598;27;45626;-68
2022/03/05 07:17:14;;;;;;;;;52.50;36.50;;;;;;;;5072357;28;45465;-69
2022/03/05 07:19:39;;;;;;;;;41.00;36.75;;;;;;;;5068868;28;45380;-68
2022/03/05 07:22:04;;;;;;;;;45.50;40.00;;;;;;;;5068917;28;45473;-69
2022/03/05 07:24:29;;;;;;;;;41.50;37.00;;;;;;;;5068758;28;47518;-69
2022/03/05 07:26:54;;;;;;;;;46.00;37.25;;;;;;;;5069022;27;45550;-68
2022/03/05 07:29:20;;;;;;;;;49.75;39.00;;;;;;;;5074146;28;45338;-69
2022/03/05 07:31:45;;;;;;;;;44.25;37.50;;;;;;;;5072302;27;45692;-69
2022/03/05 07:34:10;;;;;;;;;46.50;39.25;;;;;;;;5072390;27;47408;-68
2022/03/05 07:36:35;;;;;;;;;49.25;41.00;;;;;;;;5073865;27;45536;-69
2022/03/05 07:39:01;;;;;;;;;43.50;37.25;;;;;;;;5072794;27;45357;-68
2022/03/05 07:41:26;;;;;;;;;49.75;39.25;;;;;;;;5075922;28;45522;-70
2022/03/05 07:43:51;;;;;;;;;42.50;37.00;;;;;;;;5070854;28;48413;-68
2022/03/05 07:46:16;;;;;;;;;49.50;39.50;;;;;;;;5072423;28;45522;-68
2022/03/05 07:48:41;;;;;;;;;44.25;39.25;;;;;;;;5072273;27;45384;-67
2022/03/05 07:51:07;;;;;;;;;47.50;38.25;;;;;;;;5072455;28;45440;-69
2022/03/05 07:53:32;;;;;;;;;49.00;40.75;;;;;;;;5074369;27;48252;-69
2022/03/05 07:55:58;;;;;;;;;42.25;34.25;;;;;;;;5071808;28;45448;-69
2022/03/05 07:58:23;;;;;;;;;35.75;33.25;;;;;;;;5073455;27;45514;-69
2022/03/05 08:00:49;;;;;;;;;51.75;39.00;;;;;;;;5072060;27;45468;-69
2022/03/05 08:03:14;;;;;;;;;44.00;39.75;;;;;;;;5071826;28;48626;-68
2022/03/05 08:05:41;;;;;;;;;41.50;36.00;;;;;;;;5073406;27;45825;-68
2022/03/05 08:08:06;;;;;;;;;49.00;39.50;;;;;;;;5072950;28;45421;-68
2022/03/05 08:10:32;;;;;;;;;46.75;40.25;;;;;;;;5072996;27;45665;-69
2022/03/05 08:12:57;;;;;;;;;44.75;37.00;;;;;;;;5073059;28;45650;-69
2022/03/05 08:15:22;;;;;;;;;50.00;42.00;;;;;;;;5073189;27;45386;-69
2022/03/05 08:17:51;;;;;;;;;58.00;45.50;;;;;;;;5073937;27;45402;-69
2022/03/05 08:20:17;;;;;;;;;63.75;51.00;;;;;;;;5073612;28;45512;-69
2022/03/05 08:22:42;;;;;;;;;60.25;49.00;;;;;;;;5071455;28;45628;-69
2022/03/05 08:25:08;;;;;;;;;54.25;43.25;;;;;;;;5072851;27;45325;-68
2022/03/05 08:27:33;;;;;;;;;225.00;211.00;;;;;;;;5073002;27;45416;-69
2022/03/05 08:29:58;;;;;;;;;140.33;126.67;;;;;;;;5071752;27;45601;-69
2022/03/05 08:32:23;;;;;;;;;59.00;46.75;;;;;;;;5074931;27;46484;-70
2022/03/05 08:34:49;;;;;;;;;56.75;46.25;;;;;;;;5071231;28;45543;-70
2022/03/05 08:37:14;;;;;;;;;51.00;42.75;;;;;;;;5072671;28;45305;-70
2022/03/05 08:39:39;;;;;;;;;47.00;40.25;;;;;;;;5072458;27;45432;-69
2022/03/05 08:42:05;;;;;;;;;194.25;179.25;;;;;;;;5072811;27;45685;-69
2022/03/05 08:44:30;;;;;;;;;47.75;39.75;;;;;;;;5073490;28;45870;-69
2022/03/05 08:46:56;;;;;;;;;42.75;35.25;;;;;;;;5071438;27;45326;-69
2022/03/05 08:49:21;;;;;;;;;78.75;62.75;;;;;;;;5072564;27;45319;-69
2022/03/05 08:51:46;;;;;;;;;54.75;45.00;;;;;;;;5072619;27;45661;-69
2022/03/05 08:54:11;;;;;;;;;56.50;45.50;;;;;;;;5071189;28;45584;-69
2022/03/05 08:56:37;;;;;;;;;53.75;41.00;;;;;;;;5074321;27;45349;-68
2022/03/05 08:59:02;;;;;;;;;49.75;40.50;;;;;;;;5069777;28;45423;-68
2022/03/05 09:01:27;;;;;;;;;87.75;73.50;;;;;;;;5069418;28;47389;-69
2022/03/05 09:03:52;;;;;;;;;53.25;44.50;;;;;;;;5072397;28;45511;-68
2022/03/05 09:06:18;;;;;;;;;59.25;48.50;;;;;;;;5070923;28;45401;-69
2022/03/05 09:08:43;;;;;;;;;60.00;48.25;;;;;;;;5073499;27;45336;-69
2022/03/05 09:11:08;;;;;;;;;54.50;43.75;;;;;;;;5073727;28;46717;-68
2022/03/05 09:13:34;;;;;;;;;66.50;52.50;;;;;;;;5070939;28;45498;-67
2022/03/05 09:15:59;;;;;;;;;50.00;42.00;;;;;;;;5071228;28;45425;-69
2022/03/05 09:18:24;;;;;;;;;56.75;45.25;;;;;;;;5072680;27;45312;-69
2022/03/05 09:20:49;;;;;;;;;54.25;43.25;;;;;;;;5071415;27;47661;-68
2022/03/05 09:23:15;;;;;;;;;52.50;43.25;;;;;;;;5071382;28;45380;-68
2022/03/05 09:25:40;;;;;;;;;63.75;50.25;;;;;;;;5070962;28;45449;-68
2022/03/05 09:28:05;;;;;;;;;54.75;43.50;;;;;;;;5072624;27;45961;-68
2022/03/05 09:30:31;;;;;;;;;54.50;42.75;;;;;;;;5070795;27;48146;-68
2022/03/05 09:32:56;;;;;;;;;51.75;40.25;;;;;;;;5072406;27;45286;-67
2022/03/05 09:35:22;;;;;;;;;57.75;44.50;;;;;;;;5072985;27;45659;-68
2022/03/05 09:37:47;;;;;;;;;56.25;45.00;;;;;;;;5071850;27;45821;-68
2022/03/05 09:40:13;;;;;;;;;51.75;43.00;;;;;;;;5070460;27;45310;-69
2022/03/05 09:42:42;;;;;;;;;47.50;39.25;;;;;;;;5070033;28;45539;-68
2022/03/05 09:45:08;;;;;;;;;51.00;44.00;;;;;;;;5070505;28;45610;-69
2022/03/05 09:47:36;;;;;;;;;75.25;62.00;;;;;;;;5072315;28;45540;-69
2022/03/05 09:50:02;;;;;;;;;77.75;66.00;;;;;;;;5071953;28;45551;-70
2022/03/05 09:52:28;;;;;;;;;284.50;257.75;;;;;;;;5070405;27;45790;-71
2022/03/05 09:54:54;;;;;;;;;69.50;58.25;;;;;;;;5066382;27;45405;-69
2022/03/05 09:57:19;;;;;;;;;54.25;44.25;;;;;;;;5054636;28;45647;-70
2022/03/05 09:59:44;;;;;;;;;56.25;45.00;;;;;;;;5072394;27;45604;-69
2022/03/05 10:02:11;;;;;;;;;54.50;44.00;;;;;;;;5071384;28;45487;-68
2022/03/05 10:04:37;;;;;;;;;49.25;40.25;;;;;;;;5069704;27;45502;-69
2022/03/05 10:07:09;;;;;;;;;53.75;45.00;;;;;;;;5069650;27;45348;-71
2022/03/05 10:09:34;;;;;;;;;57.00;45.75;;;;;;;;5069927;28;48623;-68
2022/03/05 10:12:00;;;;;;;;;52.50;43.50;;;;;;;;5071793;27;45360;-69
2022/03/05 10:14:25;;;;;;;;;54.50;42.50;;;;;;;;5072527;27;45355;-68
2022/03/05 10:16:59;;;;;;;;;56.75;45.75;;;;;;;;5067476;27;45557;-68
2022/03/05 10:19:24;;;;;;;;;60.25;47.00;;;;;;;;5067258;28;48642;-69
2022/03/05 10:22:03;;;;;;;;;49.75;41.25;;;;;;;;5069681;27;45434;-68
2022/03/05 10:24:36;;;;;;;;;53.50;42.50;;;;;;;;5068963;28;45511;-70
2022/03/05 10:27:02;;;;;;;;;55.50;44.25;;;;;;;;5071376;27;45442;-70
2022/03/05 10:29:34;;;;;;;;;55.50;44.50;;;;;;;;5071792;28;47634;-70
2022/03/05 10:32:02;;;;;;;;;52.75;43.00;;;;;;;;5071126;27;45395;-70
2022/03/05 10:34:49;;;;;;;;;54.00;42.50;;;;;;;;5069803;28;45388;-70
2022/03/05 10:37:14;;;;;;;;;55.75;43.00;;;;;;;;5058655;28;45382;-69
2022/03/05 10:39:40;;;;;;;;;60.50;49.50;;;;;;;;5069015;28;47434;-69
2022/03/05 10:42:20;;;;;;;;;54.00;45.25;;;;;;;;5068514;27;45548;-69
2022/03/05 10:45:06;;;;;;;;;55.50;44.75;;;;;;;;5068917;28;45376;-68
2022/03/05 10:47:35;;;;;;;;;55.00;45.50;;;;;;;;5083215;27;45299;-70
2022/03/05 10:50:04;;;;;;;;;54.50;45.75;;;;;;;;5073713;27;48716;-71
2022/03/05 10:52:42;;;;;;;;;57.25;46.75;;;;;;;;5062910;28;45585;-72
2022/03/05 10:55:18;;;;;;;;;51.50;42.75;;;;;;;;5069117;27;45481;-71
2022/03/05 10:57:55;;;;;;;;;56.25;47.25;;;;;;;;5068004;27;45545;-69
2022/03/05 11:00:21;;;;;;;;;51.00;41.75;;;;;;;;5069492;28;47797;-68
2022/03/05 11:02:47;;;;;;;;;56.25;47.25;;;;;;;;5072264;27;45623;-68
2022/03/05 11:05:13;;;;;;;;;52.00;43.00;;;;;;;;5074905;27;45367;-68
2022/03/05 11:07:39;;;;;;;;;51.00;40.50;;;;;;;;5073542;27;45524;-67
2022/03/05 11:10:05;;;;;;;;;55.00;45.25;;;;;;;;5072715;27;48310;-69
2022/03/05 11:12:32;;;;;;;;;52.50;44.50;;;;;;;;5072147;28;46202;-69
2022/03/05 11:14:57;;;;;;;;;51.25;42.25;;;;;;;;5073394;27;45416;-69
2022/03/05 11:17:23;;;;;;;;;54.50;41.50;;;;;;;;5068384;28;45899;-69
2022/03/05 11:19:48;;;;;;;;;58.00;45.00;;;;;;;;5064205;28;48504;-69
2022/03/05 11:22:17;;;;;;;;;51.00;42.75;;;;;;;;5066257;27;45416;-69
2022/03/05 11:24:43;;;;;;;;;49.50;40.00;;;;;;;;5073937;27;45579;-71
2022/03/05 11:27:12;;;;;;;;;43.50;38.25;;;;;;;;5074689;27;45404;-70
2022/03/05 11:29:52;;;;;;;;;51.50;43.00;;;;;;;;5074103;28;48601;-71
2022/03/05 11:32:18;;;;;;;;;45.25;39.25;;;;;;;;5071865;28;46511;-71
2022/03/05 11:34:44;;;;;;;;;49.00;39.50;;;;;;;;5071635;27;45469;-70
2022/03/05 11:37:36;;;;;;;;;48.00;40.50;;;;;;;;5073986;27;45456;-73
2022/03/05 11:40:03;;;;;;;;;44.75;39.00;;;;;;;;5066047;28;47618;-71
2022/03/05 11:42:38;;;;;;;;;47.50;40.75;;;;;;;;5070223;28;45496;-71
2022/03/05 11:45:22;;;;;;;;;48.75;41.50;;;;;;;;5060769;27;45349;-71
2022/03/05 11:47:47;;;;;;;;;51.50;42.00;;;;;;;;5070816;28;45523;-71
2022/03/05 11:50:13;;;;;;;;;55.75;44.50;;;;;;;;5067990;27;46239;-70
2022/03/05 11:52:39;;;;;;;;;46.25;39.00;;;;;;;;5066617;27;45337;-72
2022/03/05 11:55:20;;;;;;;;;53.25;44.50;;;;;;;;5064323;28;45470;-72
2022/03/05 11:57:51;;;;;;;;;48.75;40.75;;;;;;;;5071651;27;45438;-72
2022/03/05 12:00:19;;;;;;;;;77.00;60.00;;;;;;;;5067434;28;47501;-69
2022/03/05 12:02:46;;;;;;;;;57.00;46.75;;;;;;;;5068003;27;45395;-71
2022/03/05 12:05:30;;;;;;;;;53.00;43.75;;;;;;;;5073079;27;45731;-70
2022/03/05 12:07:55;;;;;;;;;51.00;40.75;;;;;;;;5071719;27;45478;-71
2022/03/05 12:10:20;;;;;;;;;46.75;40.50;;;;;;;;5068135;28;47861;-73
2022/03/05 12:12:56;;;;;;;;;51.25;42.50;;;;;;;;5067083;27;46387;-69
2022/03/05 12:15:39;;;;;;;;;38.50;35.75;;;;;;;;5075276;27;45804;-72
2022/03/05 12:18:06;;;;;;;;;49.75;42.00;;;;;;;;5063582;27;45470;-71
2022/03/05 12:20:38;;;;;;;;;49.50;42.50;;;;;;;;5091128;27;47573;-71
2022/03/05 12:23:08;;;;;;;;;48.50;41.25;;;;;;;;5079900;27;45858;-72
2022/03/05 12:25:34;;;;;;;;;53.50;43.25;;;;;;;;5083766;27;45518;-71
2022/03/05 12:28:00;;;;;;;;;51.50;41.25;;;;;;;;5071707;27;45631;-72
2022/03/05 12:30:29;;;;;;;;;52.50;41.50;;;;;;;;5068618;27;46408;-71
2022/03/05 12:32:59;;;;;;;;;50.00;41.00;;;;;;;;5079535;27;45986;-71
2022/03/05 12:35:24;;;;;;;;;51.00;42.50;;;;;;;;5076100;27;45555;-71
2022/03/05 12:37:49;;;;;;;;;58.00;46.50;;;;;;;;5066753;27;45469;-71
2022/03/05 12:40:15;;;;;;;;;53.00;43.50;;;;;;;;5070402;27;47488;-70
2022/03/05 12:42:42;;;;;;;;;52.00;40.50;;;;;;;;5075789;27;45569;-70
2022/03/05 12:45:13;;;;;;;;;50.25;42.50;;;;;;;;5075094;27;45475;-72
2022/03/05 12:47:38;;;;;;;;;47.25;40.75;;;;;;;;5085689;27;45486;-71
2022/03/05 12:50:22;;;;;;;;;51.50;42.25;;;;;;;;5087527;27;45353;-68
2022/03/05 12:52:53;;;;;;;;;49.50;39.25;;;;;;;;5077614;27;46046;-69
2022/03/05 12:55:19;;;;;;;;;52.75;43.25;;;;;;;;5074221;27;45401;-68
2022/03/05 12:57:45;;;;;;;;;69.25;55.25;;;;;;;;5068708;27;45477;-68
2022/03/05 13:00:10;;;;;;;;;48.75;41.75;;;;;;;;5080216;27;45766;-69
2022/03/05 13:02:35;;;;;;;;;56.25;47.00;;;;;;;;5094686;27;45332;-69
2022/03/05 13:05:10;;;;;;;;;54.50;44.75;;;;;;;;5078628;27;45394;-69
2022/03/05 13:07:36;;;;;;;;;51.50;43.00;;;;;;;;5085454;27;45591;-69
2022/03/05 13:10:11;;;;;;;;;58.25;47.75;;;;;;;;5083452;27;45996;-69
2022/03/05 13:12:37;;;;;;;;;59.25;47.25;;;;;;;;5084516;27;45826;-69
2022/03/05 13:15:02;;;;;;;;;53.50;44.50;;;;;;;;5088215;27;45428;-69
2022/03/05 13:17:27;;;;;;;;;46.75;38.00;;;;;;;;5085573;27;45410;-69
2022/03/05 13:20:00;;;;;;;;;53.50;44.00;;;;;;;;5086397;27;45713;-68
2022/03/05 13:22:26;;;;;;;;;58.50;46.50;;;;;;;;5078551;27;46115;-67
2022/03/05 13:24:51;;;;;;;;;57.50;45.75;;;;;;;;5084823;27;45898;-68
2022/03/05 13:27:16;;;;;;;;;54.25;46.00;;;;;;;;5084955;27;45615;-68
2022/03/05 13:29:42;;;;;;;;;50.00;41.25;;;;;;;;5085761;27;45566;-69
2022/03/05 13:32:07;;;;;;;;;51.00;41.75;;;;;;;;5086623;27;46440;-69
2022/03/05 13:34:32;;;;;;;;;53.00;43.75;;;;;;;;5079430;27;45585;-71
2022/03/05 13:37:05;;;;;;;;;58.00;46.00;;;;;;;;5084961;27;45597;-68
2022/03/05 13:39:33;;;;;;;;;50.75;42.25;;;;;;;;5086218;27;45510;-68
2022/03/05 13:41:58;;;;;;;;;48.50;41.00;;;;;;;;5080751;27;45403;-68
2022/03/05 13:44:25;;;;;;;;;50.75;40.25;;;;;;;;5091715;27;45392;-68
2022/03/05 13:46:52;;;;;;;;;51.75;44.00;;;;;;;;5080730;27;45359;-68
2022/03/05 13:49:17;;;;;;;;;53.25;44.75;;;;;;;;5084442;27;47228;-69
2022/03/05 13:51:47;;;;;;;;;47.25;40.00;;;;;;;;5085495;27;45567;-69
2022/03/05 13:54:12;;;;;;;;;52.25;43.25;;;;;;;;5079284;27;45484;-68
2022/03/05 13:56:48;;;;;;;;;54.25;42.25;;;;;;;;5092022;27;45478;-68
2022/03/05 13:59:14;;;;;;;;;51.25;43.75;;;;;;;;5080703;27;47538;-69
2022/03/05 14:01:40;;;;;;;;;57.25;46.00;;;;;;;;5084324;27;45486;-68
2022/03/05 14:04:19;;;;;;;;;53.50;45.25;;;;;;;;5081124;27;45391;-69
2022/03/05 14:06:47;;;;;;;;;56.00;45.50;;;;;;;;5083591;27;45429;-68
2022/03/05 14:09:19;;;;;;;;;52.25;43.00;;;;;;;;5084310;27;48216;-69
2022/03/05 14:11:44;;;;;;;;;60.50;47.00;;;;;;;;5084455;27;45499;-68
2022/03/05 14:14:09;;;;;;;;;50.75;43.25;;;;;;;;5088448;27;45929;-68